createdAt,value
2019-05-13T00:01:06.724Z,102089.16
2019-05-13T00:03:34.371Z,102087.70
2019-05-13T00:06:05.134Z,102088.89
2019-05-13T00:08:35.836Z,102087.19
2019-05-13T00:11:06.596Z,102097.61
2019-05-13T00:13:37.282Z,102088.77
2019-05-13T00:16:07.960Z,102093.02
2019-05-13T00:18:38.972Z,102089.86
2019-05-13T00:21:10.015Z,102097.25
2019-05-13T00:23:40.695Z,102098.31
2019-05-13T00:26:11.434Z,102101.97
2019-05-13T00:28:44.412Z,102098.56
2019-05-13T00:31:14.866Z,102100.72
2019-05-13T00:33:45.756Z,102105.84
2019-05-13T00:36:16.438Z,102072.45
2019-05-13T00:38:47.481Z,102104.83
2019-05-13T00:41:18.152Z,102108.95
2019-05-13T00:43:48.839Z,102102.30
2019-05-13T00:46:19.899Z,102105.20
2019-05-13T00:48:50.576Z,102108.23
2019-05-13T00:51:21.563Z,102112.23
2019-05-13T00:53:53.661Z,102112.59
2019-05-13T00:56:24.795Z,102107.95
2019-05-13T00:58:55.449Z,102105.55
2019-05-13T01:01:26.128Z,102112.69
2019-05-13T01:03:56.810Z,102113.04
2019-05-13T01:06:27.601Z,102120.28
2019-05-13T01:08:58.261Z,102122.95
2019-05-13T01:11:28.972Z,102121.00
2019-05-13T01:14:00.023Z,102122.33
2019-05-13T01:16:31.069Z,102127.14
2019-05-13T01:19:04.009Z,102132.44
2019-05-13T01:21:34.619Z,102136.04
2019-05-13T01:24:05.907Z,102139.88
2019-05-13T01:26:36.956Z,102139.03
2019-05-13T01:29:08.018Z,102147.17
2019-05-13T01:31:38.676Z,102150.45
2019-05-13T01:34:09.343Z,102147.08
2019-05-13T01:36:40.004Z,102147.75
2019-05-13T01:39:13.707Z,102146.80
2019-05-13T01:41:43.920Z,102149.70
2019-05-13T01:44:14.733Z,102152.91
2019-05-13T01:46:45.400Z,102155.02
2019-05-13T01:49:18.617Z,102156.64
2019-05-13T01:51:48.828Z,102160.66
2019-05-13T01:54:19.856Z,102161.84
2019-05-13T01:56:53.019Z,102162.13
2019-05-13T01:59:23.916Z,102163.70
2019-05-13T02:01:54.769Z,102171.52
2019-05-13T02:04:25.846Z,102171.58
2019-05-13T02:06:56.812Z,102169.94
2019-05-13T02:09:27.458Z,102170.63
2019-05-13T02:11:58.473Z,102176.36
2019-05-13T02:14:29.182Z,102169.77
2019-05-13T02:16:59.871Z,102174.70
2019-05-13T02:19:30.541Z,102173.85
2019-05-13T02:22:03.970Z,102176.22
2019-05-13T02:24:34.427Z,102181.63
2019-05-13T02:27:05.544Z,102183.16
2019-05-13T02:29:36.524Z,102181.11
2019-05-13T02:32:07.319Z,102183.17
2019-05-13T02:34:43.256Z,102184.09
2019-05-13T02:37:12.999Z,102180.83
2019-05-13T02:39:43.778Z,102185.90
2019-05-13T02:42:14.805Z,102182.66
2019-05-13T02:44:45.460Z,102183.81
2019-05-13T02:47:16.141Z,102187.48
2019-05-13T02:49:46.793Z,102188.05
2019-05-13T02:52:17.518Z,102191.83
2019-05-13T02:54:48.151Z,102187.68
2019-05-13T02:57:19.228Z,102185.45
2019-05-13T02:59:52.660Z,102190.43
2019-05-13T03:02:22.586Z,102187.17
2019-05-13T03:04:53.381Z,102189.75
2019-05-13T03:07:24.067Z,102189.24
2019-05-13T03:09:54.953Z,102196.09
2019-05-13T03:12:25.759Z,102196.27
2019-05-13T03:14:56.396Z,102204.87
2019-05-13T03:17:32.718Z,102204.87
2019-05-13T03:20:04.555Z,102206.02
2019-05-13T03:22:35.385Z,102202.00
2019-05-13T03:25:07.643Z,102208.85
2019-05-13T03:27:38.678Z,102209.80
2019-05-13T03:30:15.746Z,102215.61
2019-05-13T03:32:51.499Z,102215.34
2019-05-13T03:35:16.580Z,102219.50
2019-05-13T03:37:47.845Z,102223.66
2019-05-13T03:40:18.524Z,102224.65
2019-05-13T03:42:53.376Z,102232.09
2019-05-13T03:45:26.297Z,102227.28
2019-05-13T03:47:59.200Z,102232.30
2019-05-13T03:50:34.207Z,102228.45
2019-05-13T03:53:03.325Z,102234.72
2019-05-13T03:55:34.511Z,102238.39
2019-05-13T03:58:05.563Z,102242.27
2019-05-13T04:00:36.517Z,102245.33
2019-05-13T04:03:07.182Z,102249.56
2019-05-13T04:05:38.034Z,102245.67
2019-05-13T04:08:12.986Z,102246.36
2019-05-13T04:10:42.448Z,102251.01
2019-05-13T04:13:13.559Z,102252.22
2019-05-13T04:15:44.995Z,102251.95
2019-05-13T04:18:15.928Z,102250.54
2019-05-13T04:20:46.649Z,102252.87
2019-05-13T04:23:18.000Z,102260.44
2019-05-13T04:25:48.992Z,102257.41
2019-05-13T04:28:22.271Z,102266.18
2019-05-13T04:30:52.881Z,102266.28
2019-05-13T04:33:24.139Z,102270.06
2019-05-13T04:35:54.943Z,102269.51
2019-05-13T04:38:25.704Z,102265.08
2019-05-13T04:40:56.822Z,102273.62
2019-05-13T04:43:30.696Z,102272.34
2019-05-13T04:46:02.574Z,102271.64
2019-05-13T04:48:34.000Z,102271.11
2019-05-13T04:51:05.394Z,102273.39
2019-05-13T04:53:36.646Z,102267.72
2019-05-13T04:56:07.458Z,102265.67
2019-05-13T04:58:38.750Z,102277.89
2019-05-13T05:01:16.991Z,102284.61
2019-05-13T05:04:03.445Z,102285.52
2019-05-13T05:06:38.294Z,102288.84
2019-05-13T05:09:22.289Z,102290.41
2019-05-13T05:12:16.995Z,102289.49
2019-05-13T05:15:32.278Z,102295.19
2019-05-13T05:18:34.563Z,102297.61
2019-05-13T05:21:12.595Z,102300.48
2019-05-13T05:24:02.732Z,102297.57
2019-05-13T05:27:03.230Z,102299.62
2019-05-13T05:30:03.707Z,102299.95
2019-05-13T05:33:11.408Z,102302.75
2019-05-13T05:36:01.883Z,102301.89
2019-05-13T05:39:01.748Z,102301.81
2019-05-13T05:41:37.488Z,102303.75
2019-05-13T05:44:12.683Z,102311.53
2019-05-13T05:46:43.430Z,102303.49
2019-05-13T05:49:17.851Z,102300.13
2019-05-13T05:51:51.770Z,102300.45
2019-05-13T05:54:25.814Z,102306.66
2019-05-13T05:57:01.137Z,102307.52
2019-05-13T05:59:32.304Z,102311.78
2019-05-13T06:02:04.646Z,102311.78
2019-05-13T06:04:35.735Z,102302.97
2019-05-13T06:07:06.560Z,102297.16
2019-05-13T06:09:37.424Z,102298.66
2019-05-13T06:12:08.211Z,102294.75
2019-05-13T06:14:42.105Z,102304.64
2019-05-13T06:17:12.337Z,102295.63
2019-05-13T06:19:43.299Z,102297.87
2019-05-13T06:22:14.027Z,102307.75
2019-05-13T06:24:44.718Z,102308.26
2019-05-13T06:27:15.394Z,102309.05
2019-05-13T06:29:49.204Z,102308.75
2019-05-13T06:32:23.496Z,102310.94
2019-05-13T06:34:52.607Z,102307.64
2019-05-13T06:37:23.453Z,102310.26
2019-05-13T06:39:54.253Z,102314.98
2019-05-13T06:42:25.385Z,102312.73
2019-05-13T06:44:56.077Z,102320.59
2019-05-13T06:47:27.017Z,102317.01
2019-05-13T06:49:58.089Z,102315.50
2019-05-13T06:52:31.675Z,102313.59
2019-05-13T06:55:02.932Z,102315.45
2019-05-13T06:57:34.043Z,102324.89
2019-05-13T07:00:08.033Z,102325.63
2019-05-13T07:02:38.965Z,102330.58
2019-05-13T07:05:12.021Z,102332.88
2019-05-13T07:07:42.558Z,102328.75
2019-05-13T07:10:13.857Z,102327.02
2019-05-13T07:12:44.910Z,102328.73
2019-05-13T07:15:16.762Z,102326.36
2019-05-13T07:17:48.026Z,102319.88
2019-05-13T07:20:22.311Z,102333.55
2019-05-13T07:22:53.219Z,102332.48
2019-05-13T07:25:23.943Z,102330.44
2019-05-13T07:27:55.046Z,102331.13
2019-05-13T07:30:45.417Z,102323.53
2019-05-13T07:33:16.110Z,102319.44
2019-05-13T07:35:47.886Z,102317.45
2019-05-13T07:38:22.009Z,102321.45
2019-05-13T07:41:04.362Z,102318.45
2019-05-13T07:43:35.155Z,102314.73
2019-05-13T07:46:06.232Z,102316.35
2019-05-13T07:48:36.913Z,102319.47
2019-05-13T07:51:08.561Z,102318.16
2019-05-13T07:53:39.249Z,102319.03
2019-05-13T07:56:11.778Z,102306.11
2019-05-13T07:58:42.484Z,102310.95
2019-05-13T08:01:13.351Z,102311.20
2019-05-13T08:03:44.014Z,102307.81
2019-05-13T08:06:14.714Z,102303.75
2019-05-13T08:08:45.469Z,102305.25
2019-05-13T08:11:16.481Z,102310.47
2019-05-13T08:13:47.451Z,102303.06
2019-05-13T08:16:18.168Z,102299.85
2019-05-13T08:18:49.255Z,102300.78
2019-05-13T08:21:21.532Z,102297.24
2019-05-13T08:23:52.720Z,102301.20
2019-05-13T08:26:23.769Z,102302.27
2019-05-13T08:29:01.565Z,102294.44
2019-05-13T08:31:27.071Z,102297.16
2019-05-13T08:33:57.749Z,102290.06
2019-05-13T08:36:28.423Z,102294.31
2019-05-13T08:38:59.106Z,102294.39
2019-05-13T08:41:32.215Z,102289.45
2019-05-13T08:44:02.502Z,102289.09
2019-05-13T08:46:34.067Z,102287.25
2019-05-13T08:49:04.888Z,102285.05
2019-05-13T08:51:35.696Z,102285.80
2019-05-13T08:54:06.359Z,102287.92
2019-05-13T08:56:37.380Z,102291.37
2019-05-13T08:59:08.050Z,102287.87
2019-05-13T09:01:38.757Z,102283.89
2019-05-13T09:04:11.853Z,102279.70
2019-05-13T09:06:43.381Z,102286.41
2019-05-13T09:09:14.374Z,102286.01
2019-05-13T09:11:45.379Z,102277.53
2019-05-13T09:14:16.144Z,102280.09
2019-05-13T09:16:46.873Z,102277.61
2019-05-13T09:19:17.541Z,102278.56
2019-05-13T09:21:48.255Z,102277.29
2019-05-13T09:24:26.034Z,102274.03
2019-05-13T09:26:52.728Z,102270.02
2019-05-13T09:29:23.988Z,102235.83
2019-05-13T09:31:54.952Z,102274.29
2019-05-13T09:34:26.682Z,102274.23
2019-05-13T09:36:57.348Z,102260.67
2019-05-13T09:39:28.321Z,102267.52
2019-05-13T09:41:59.014Z,102262.53
2019-05-13T09:44:32.403Z,102257.34
2019-05-13T09:47:02.797Z,102259.34
2019-05-13T09:49:33.615Z,102265.61
2019-05-13T09:52:06.092Z,102257.01
2019-05-13T09:54:37.159Z,102253.39
2019-05-13T09:57:08.187Z,102256.46
2019-05-13T09:59:38.970Z,102273.67
2019-05-13T10:02:12.512Z,102271.11
2019-05-13T10:04:43.627Z,102267.12
2019-05-13T10:07:15.223Z,102257.61
2019-05-13T10:09:48.358Z,102244.66
2019-05-13T10:12:18.627Z,102241.36
2019-05-13T10:14:49.311Z,102243.53
2019-05-13T10:17:22.122Z,102251.88
2019-05-13T10:19:52.996Z,102238.69
2019-05-13T10:22:23.718Z,102236.38
2019-05-13T10:24:54.490Z,102236.17
2019-05-13T10:27:25.700Z,102240.95
2019-05-13T10:29:56.547Z,102227.73
2019-05-13T10:32:27.195Z,102241.26
2019-05-13T10:35:02.990Z,102233.53
2019-05-13T10:37:32.293Z,102234.16
2019-05-13T10:40:03.070Z,102228.61
2019-05-13T10:42:34.485Z,102235.73
2019-05-13T10:45:06.093Z,102231.97
2019-05-13T10:47:37.106Z,102234.05
2019-05-13T10:50:09.610Z,102224.30
2019-05-13T10:52:42.764Z,102225.40
2019-05-13T10:55:14.728Z,102239.89
2019-05-13T10:57:46.169Z,102231.34
2019-05-13T11:00:17.357Z,102224.91
2019-05-13T11:02:48.035Z,102229.47
2019-05-13T11:05:18.714Z,102235.20
2019-05-13T11:07:51.721Z,102235.73
2019-05-13T11:10:26.654Z,102241.98
2019-05-13T11:12:57.710Z,102243.80
2019-05-13T11:15:32.719Z,102249.00
2019-05-13T11:18:03.008Z,102251.01
2019-05-13T11:20:33.187Z,102247.95
2019-05-13T11:23:04.375Z,102243.29
2019-05-13T11:25:35.605Z,102231.44
2019-05-13T11:28:06.778Z,102216.83
2019-05-13T11:30:37.440Z,102207.72
2019-05-13T11:33:10.149Z,102206.13
2019-05-13T11:35:41.834Z,102206.16
2019-05-13T11:38:12.774Z,102210.91
2019-05-13T11:40:43.746Z,102223.34
2019-05-13T11:43:14.445Z,102213.30
2019-05-13T11:45:45.520Z,102216.13
2019-05-13T11:48:16.805Z,102220.77
2019-05-13T11:50:50.404Z,102214.70
2019-05-13T11:53:33.192Z,102216.89
2019-05-13T11:55:52.506Z,102209.85
2019-05-13T11:58:23.452Z,102212.87
2019-05-13T12:00:58.121Z,102199.89
2019-05-13T12:03:32.163Z,102201.34
2019-05-13T12:06:02.547Z,102204.69
2019-05-13T12:08:34.459Z,102199.20
2019-05-13T12:11:06.313Z,102192.98
2019-05-13T12:13:37.632Z,102193.27
2019-05-13T12:16:08.680Z,102187.10
2019-05-13T12:18:43.636Z,102186.03
2019-05-13T12:21:12.316Z,102182.20
2019-05-13T12:23:43.131Z,102177.90
2019-05-13T12:26:14.480Z,102179.56
2019-05-13T12:28:45.515Z,102178.83
2019-05-13T12:31:16.227Z,102186.17
2019-05-13T12:33:46.937Z,102180.44
2019-05-13T12:36:19.080Z,102180.48
2019-05-13T12:38:53.698Z,102182.55
2019-05-13T12:41:23.192Z,102178.65
2019-05-13T12:43:54.322Z,102177.16
2019-05-13T12:46:25.396Z,102170.50
2019-05-13T12:48:56.043Z,102156.24
2019-05-13T12:51:26.735Z,102159.65
2019-05-13T12:53:57.419Z,102152.09
2019-05-13T12:56:28.413Z,102152.75
2019-05-13T12:59:02.702Z,102158.14
2019-05-13T13:01:32.537Z,102156.72
2019-05-13T13:04:03.720Z,102147.66
2019-05-13T13:06:40.719Z,102152.55
2019-05-13T13:09:07.725Z,102150.73
2019-05-13T13:11:38.623Z,102156.59
2019-05-13T13:14:14.070Z,102150.41
2019-05-13T13:16:42.338Z,102158.61
2019-05-13T13:19:15.074Z,102148.50
2019-05-13T13:21:46.953Z,102158.25
2019-05-13T13:24:17.690Z,102151.22
2019-05-13T13:26:48.730Z,102136.09
2019-05-13T13:29:21.501Z,102144.38
2019-05-13T13:34:25.999Z,102138.02
2019-05-13T13:36:57.197Z,102141.80
2019-05-13T13:39:28.208Z,102130.14
2019-05-13T13:41:58.914Z,102138.73
2019-05-13T13:44:35.012Z,102139.64
2019-05-13T13:47:03.934Z,102134.23
2019-05-13T13:49:35.391Z,102130.77
2019-05-13T13:52:15.841Z,102130.52
2019-05-13T13:54:44.238Z,102134.81
2019-05-13T13:57:14.008Z,102127.37
2019-05-13T14:00:16.176Z,102135.31
2019-05-13T14:02:17.579Z,102124.39
2019-05-13T14:04:53.626Z,102127.55
2019-05-13T14:07:09.337Z,102142.45
2019-05-13T14:07:34.395Z,102127.16
2019-05-13T14:09:57.473Z,102133.34
2019-05-13T14:12:28.442Z,102137.28
2019-05-13T14:15:01.655Z,102127.16
2019-05-13T14:17:32.646Z,102119.40
2019-05-13T14:20:04.634Z,102121.80
2019-05-13T14:22:35.521Z,102128.40
2019-05-13T14:25:08.554Z,102126.56
2019-05-13T14:27:41.885Z,102119.48
2019-05-13T14:30:12.561Z,102115.65
2019-05-13T14:32:43.703Z,102119.23
2019-05-13T14:35:15.070Z,102114.41
2019-05-13T14:37:46.064Z,102109.34
2019-05-13T14:40:18.482Z,102110.52
2019-05-13T14:42:52.377Z,102102.14
2019-05-13T14:45:23.840Z,102107.31
2019-05-13T14:47:56.217Z,102104.27
2019-05-13T14:50:27.245Z,102108.80
2019-05-13T14:52:58.415Z,102095.67
2019-05-13T14:55:29.178Z,102091.94
2019-05-13T14:58:01.590Z,102088.98
2019-05-13T15:00:33.062Z,102089.39
2019-05-13T15:03:03.797Z,102083.07
2019-05-13T15:05:35.016Z,102078.91
2019-05-13T15:08:06.141Z,102070.23
2019-05-13T15:10:37.333Z,102068.79
2019-05-13T15:13:08.404Z,102066.12
2019-05-13T15:15:42.177Z,102071.73
2019-05-13T15:18:12.970Z,102078.55
2019-05-13T15:20:44.023Z,102071.34
2019-05-13T15:23:15.363Z,102065.94
2019-05-13T15:25:46.539Z,102068.96
2019-05-13T15:28:17.409Z,102071.97
2019-05-13T15:30:48.059Z,102069.42
2019-05-13T15:33:18.733Z,102061.00
2019-05-13T15:35:52.745Z,102064.41
2019-05-13T15:38:24.771Z,102062.78
2019-05-13T15:40:55.607Z,102054.20
2019-05-13T15:43:26.462Z,102054.18
2019-05-13T15:45:57.134Z,102050.84
2019-05-13T15:48:27.845Z,102053.04
2019-05-13T15:50:58.812Z,102053.37
2019-05-13T15:53:32.062Z,102056.50
2019-05-13T15:56:03.009Z,102054.28
2019-05-13T15:58:39.113Z,102046.97
2019-05-13T16:01:06.859Z,102052.25
2019-05-13T16:03:37.599Z,102044.11
2019-05-13T16:06:08.712Z,102053.20
2019-05-13T16:08:43.134Z,102048.42
2019-05-13T16:11:12.672Z,102048.23
2019-05-13T16:13:43.959Z,102054.66
2019-05-13T16:16:16.293Z,102052.22
2019-05-13T16:18:47.387Z,102051.56
2019-05-13T16:21:18.401Z,102052.00
2019-05-13T16:23:51.419Z,102049.89
2019-05-13T16:26:22.791Z,102045.56
2019-05-13T16:28:53.613Z,102046.03
2019-05-13T16:31:25.204Z,102048.29
2019-05-13T16:33:56.107Z,102049.63
2019-05-13T16:36:27.419Z,102050.71
2019-05-13T16:39:01.961Z,102046.49
2019-05-13T16:41:36.587Z,102051.76
2019-05-13T16:44:07.261Z,102046.75
2019-05-13T16:46:38.443Z,102050.77
2019-05-13T16:49:12.123Z,102044.88
2019-05-13T16:51:43.009Z,102040.97
2019-05-13T16:54:13.810Z,102043.67
2019-05-13T16:56:44.538Z,102048.22
2019-05-13T16:59:15.834Z,102039.48
2019-05-13T17:01:46.674Z,102045.76
2019-05-13T17:04:17.979Z,102042.61
2019-05-13T17:06:49.343Z,102040.92
2019-05-13T17:09:20.717Z,102037.52
2019-05-13T17:11:51.950Z,102036.22
2019-05-13T17:14:23.229Z,102042.98
2019-05-13T17:16:54.422Z,102045.94
2019-05-13T17:19:25.271Z,102037.31
2019-05-13T17:21:56.313Z,102043.48
2019-05-13T17:24:27.231Z,102048.48
2019-05-13T17:26:58.454Z,102049.69
2019-05-13T17:29:31.702Z,102044.20
2019-05-13T17:32:02.709Z,102048.66
2019-05-13T17:34:33.916Z,102045.27
2019-05-13T17:37:05.280Z,102045.70
2019-05-13T17:39:36.011Z,102049.72
2019-05-13T17:42:06.745Z,102045.86
2019-05-13T17:44:37.594Z,102046.52
2019-05-13T17:47:08.767Z,102054.13
2019-05-13T17:49:41.744Z,102051.31
2019-05-13T17:52:12.444Z,102045.94
2019-05-13T17:54:44.203Z,102052.73
2019-05-13T17:57:15.555Z,102050.82
2019-05-13T17:59:46.441Z,102054.80
2019-05-13T18:02:17.552Z,102053.38
2019-05-13T18:04:48.783Z,102053.05
2019-05-13T18:07:21.502Z,102051.97
2019-05-13T18:09:53.809Z,102053.67
2019-05-13T18:12:24.874Z,102058.42
2019-05-13T18:14:55.923Z,102059.38
2019-05-13T18:17:26.974Z,102064.86
2019-05-13T18:19:59.337Z,102064.58
2019-05-13T18:22:31.159Z,102062.70
2019-05-13T18:25:04.500Z,102067.72
2019-05-13T18:27:36.327Z,102068.97
2019-05-13T18:30:11.397Z,102070.42
2019-05-13T18:32:51.623Z,102070.06
2019-05-13T18:35:22.153Z,102076.66
2019-05-13T18:37:54.204Z,102077.42
2019-05-13T18:40:25.486Z,102077.58
2019-05-13T18:42:56.551Z,102076.24
2019-05-13T18:45:27.519Z,102074.44
2019-05-13T18:47:58.581Z,102079.89
2019-05-13T18:50:31.336Z,102074.08
2019-05-13T18:53:02.638Z,102077.70
2019-05-13T18:55:33.553Z,102081.86
2019-05-13T18:58:04.254Z,102075.41
2019-05-13T19:00:34.939Z,102079.98
2019-05-13T19:03:05.939Z,102084.25
2019-05-13T19:05:37.598Z,102080.51
2019-05-13T19:08:09.465Z,102079.76
2019-05-13T19:10:42.043Z,102083.19
2019-05-13T19:13:12.780Z,102083.40
2019-05-13T19:15:44.825Z,102082.31
2019-05-13T19:18:15.502Z,102086.70
2019-05-13T19:20:46.261Z,102084.78
2019-05-13T19:23:16.962Z,102084.43
2019-05-13T19:25:48.240Z,102082.78
2019-05-13T19:28:19.510Z,102092.29
2019-05-13T19:30:51.613Z,102077.27
2019-05-13T19:33:23.966Z,102080.58
2019-05-13T19:35:54.989Z,102078.14
2019-05-13T19:38:26.696Z,102083.11
2019-05-13T19:40:57.781Z,102084.70
2019-05-13T19:43:31.156Z,102080.25
2019-05-13T19:46:01.925Z,102080.98
2019-05-13T19:48:32.968Z,102083.66
2019-05-13T19:51:04.147Z,102087.55
2019-05-13T19:53:34.851Z,102084.39
2019-05-13T19:56:07.131Z,102083.69
2019-05-13T19:58:38.021Z,102085.49
2019-05-13T20:01:08.724Z,102077.73
2019-05-13T20:03:42.037Z,102078.95
2019-05-13T20:06:12.366Z,102079.56
2019-05-13T20:08:43.230Z,102078.36
2019-05-13T20:11:14.361Z,102076.67
2019-05-13T20:13:45.442Z,102077.64
2019-05-13T20:16:16.416Z,102075.83
2019-05-13T20:18:48.389Z,102074.37
2019-05-13T20:21:19.520Z,102074.84
2019-05-13T20:23:51.890Z,102076.41
2019-05-13T20:26:23.462Z,102075.66
2019-05-13T20:28:54.164Z,102067.91
2019-05-13T20:31:24.851Z,102070.92
2019-05-13T20:33:55.963Z,102069.19
2019-05-13T20:36:27.281Z,102066.51
2019-05-13T20:38:58.302Z,102064.25
2019-05-13T20:41:31.517Z,102065.58
2019-05-13T20:44:01.652Z,102064.22
2019-05-13T20:46:33.847Z,102065.89
2019-05-13T20:49:04.573Z,102062.86
2019-05-13T20:51:35.720Z,102069.45
2019-05-13T20:54:06.688Z,102069.83
2019-05-13T20:56:37.769Z,102074.37
2019-05-13T20:59:09.956Z,102077.65
2019-05-13T21:01:41.890Z,102074.51
2019-05-13T21:04:13.850Z,102075.22
2019-05-13T21:06:45.006Z,102076.55
2019-05-13T21:09:17.092Z,102075.70
2019-05-13T21:11:48.058Z,102077.65
2019-05-13T21:14:21.402Z,102079.11
2019-05-13T21:16:53.767Z,102082.26
2019-05-13T21:19:25.505Z,102083.59
2019-05-13T21:21:56.208Z,102086.02
2019-05-13T21:24:26.882Z,102090.97
2019-05-13T21:26:57.910Z,102094.14
2019-05-13T21:29:28.867Z,102091.82
2019-05-13T21:32:01.144Z,102094.35
2019-05-13T21:34:32.269Z,102095.45
2019-05-13T21:37:04.316Z,102093.29
2019-05-13T21:39:35.395Z,102093.02
2019-05-13T21:42:06.210Z,102090.83
2019-05-13T21:44:36.937Z,102085.98
2019-05-13T21:47:07.966Z,102072.53
2019-05-13T21:49:39.122Z,102069.73
2019-05-13T21:52:10.075Z,102069.25
2019-05-13T21:54:42.149Z,102068.29
2019-05-13T21:57:13.105Z,102071.70
2019-05-13T21:59:45.213Z,102065.94
2019-05-13T22:02:16.902Z,102072.84
2019-05-13T22:04:47.850Z,102069.22
2019-05-13T22:07:18.861Z,102070.86
2019-05-13T22:09:51.352Z,102066.10
2019-05-13T22:12:22.708Z,102057.84
2019-05-13T22:14:53.752Z,102053.41
2019-05-13T22:17:24.946Z,102053.13
2019-05-13T22:19:55.925Z,102065.48
2019-05-13T22:22:26.634Z,102066.30
2019-05-13T22:24:57.278Z,102063.50
2019-05-13T22:27:28.333Z,102064.40
2019-05-13T22:30:01.243Z,102060.73
2019-05-13T22:32:31.714Z,102055.73
2019-05-13T22:35:02.366Z,102054.19
2019-05-13T22:37:33.422Z,102056.65
2019-05-13T22:40:05.707Z,102051.13
2019-05-13T22:42:36.367Z,102049.84
2019-05-13T22:45:08.002Z,102054.11
2019-05-13T22:47:38.771Z,102052.98
2019-05-13T22:50:11.444Z,102058.81
2019-05-13T22:52:42.349Z,102057.19
2019-05-13T22:55:14.731Z,102050.39
2019-05-13T22:57:45.410Z,102048.15
2019-05-13T23:00:16.605Z,102053.31
2019-05-13T23:02:48.916Z,102054.13
2019-05-13T23:05:21.796Z,102057.14
2019-05-13T23:07:52.563Z,102054.82
2019-05-13T23:10:23.202Z,102054.42
2019-05-13T23:12:54.249Z,102057.24
2019-05-13T23:15:25.269Z,102051.52
2019-05-13T23:17:56.327Z,102047.16
2019-05-13T23:20:27.375Z,102050.45
2019-05-13T23:22:58.032Z,102047.31
2019-05-13T23:25:28.704Z,102048.77
2019-05-13T23:27:59.454Z,102050.83
2019-05-13T23:30:31.214Z,102053.52
2019-05-13T23:33:02.284Z,102049.71
2019-05-13T23:35:33.392Z,102056.57
2019-05-13T23:38:04.565Z,102054.52
2019-05-13T23:40:35.590Z,102060.83
2019-05-13T23:43:06.729Z,102055.34
2019-05-13T23:45:37.651Z,102050.67
2019-05-13T23:48:08.323Z,102045.28
2019-05-13T23:50:41.348Z,102049.17
2019-05-13T23:53:11.344Z,102043.70
2019-05-13T23:55:42.010Z,102039.76
2019-05-13T23:58:12.669Z,102033.00
